Terminal Aerodrome Forecast
Issued by NWS Shreveport, LA

Home | Current Version | Previous Version | Text Only | Print | Product List | Glossary On
Versions: 1 2 3 4 5 6 7 8 9 10 11 12 13 14
000
FTUS44 KSHV 302320
TAFLFK
TAF
KLFK 302320Z 0100/0124 21004KT P6SM SCT050 SCT250
     FM011100 VRB03KT 5SM BR BKN015
     FM011600 22010KT P6SM VCTS BKN050CB=

USA.gov is the U.S. government's official web portal to all federal, state and local government web resources and services.